createdAt,value
2022-10-03T00:00:12.159Z,11.04
2022-10-03T00:03:07.993Z,11.04
2022-10-03T00:05:53.146Z,11.02
2022-10-03T00:08:38.220Z,10.96
2022-10-03T00:11:19.327Z,11.07
2022-10-03T00:13:57.417Z,11.03
2022-10-03T00:16:38.490Z,11.09
2022-10-03T00:19:17.587Z,11.11
2022-10-03T00:22:00.981Z,11.08
2022-10-03T00:24:42.283Z,11.05
2022-10-03T00:27:17.862Z,11.20
2022-10-03T00:29:58.314Z,11.14
2022-10-03T00:32:43.737Z,11.09
2022-10-03T00:35:24.444Z,11.15
2022-10-03T00:38:11.541Z,11.10
2022-10-03T00:41:18.423Z,11.11
2022-10-03T00:44:18.176Z,11.14
2022-10-03T00:47:21.572Z,11.14
2022-10-03T00:50:23.256Z,11.16
2022-10-03T00:53:17.545Z,11.18
2022-10-03T00:56:07.989Z,11.25
2022-10-03T00:58:49.849Z,11.20
2022-10-03T01:01:25.803Z,11.21
2022-10-03T01:04:08.847Z,11.26
2022-10-03T01:06:47.189Z,11.20
2022-10-03T01:09:36.588Z,11.14
2022-10-03T01:12:30.704Z,11.13
2022-10-03T01:15:18.469Z,11.11
2022-10-03T01:18:00.969Z,11.17
2022-10-03T01:20:35.363Z,11.14
2022-10-03T01:23:23.684Z,11.08
2022-10-03T01:26:06.400Z,10.98
2022-10-03T01:29:09.798Z,11.04
2022-10-03T01:31:46.430Z,11.12
2022-10-03T01:34:23.991Z,11.04
2022-10-03T01:37:06.372Z,11.00
2022-10-03T01:39:43.839Z,11.10
2022-10-03T01:42:20.711Z,11.05
2022-10-03T01:45:11.948Z,11.04
2022-10-03T01:47:51.792Z,11.02
2022-10-03T01:50:29.567Z,11.10
2022-10-03T01:53:08.136Z,11.08
2022-10-03T01:55:48.852Z,11.06
2022-10-03T01:58:28.856Z,11.04
2022-10-03T02:01:08.642Z,11.13
2022-10-03T02:03:45.337Z,11.11
2022-10-03T02:06:22.550Z,11.13
2022-10-03T02:09:01.568Z,11.06
2022-10-03T02:11:36.834Z,11.13
2022-10-03T02:14:22.650Z,11.17
2022-10-03T02:17:02.701Z,11.20
2022-10-03T02:19:36.545Z,11.15
2022-10-03T02:22:16.585Z,11.14
2022-10-03T02:24:52.603Z,11.28
2022-10-03T02:27:43.985Z,11.29
2022-10-03T02:30:21.100Z,11.27
2022-10-03T02:33:26.231Z,11.24
2022-10-03T02:36:14.786Z,11.32
2022-10-03T02:39:04.539Z,11.36
2022-10-03T02:42:08.761Z,11.39
2022-10-03T02:45:11.596Z,11.41
2022-10-03T02:48:33.577Z,11.43
2022-10-03T02:51:37.862Z,11.35
2022-10-03T02:54:43.554Z,11.29
2022-10-03T02:57:46.207Z,11.31
2022-10-03T03:00:20.649Z,11.28
2022-10-03T03:03:37.588Z,11.23
2022-10-03T03:06:32.421Z,11.28
2022-10-03T03:09:34.257Z,11.36
2022-10-03T03:12:44.822Z,11.33
2022-10-03T03:16:05.428Z,11.28
2022-10-03T03:18:37.943Z,11.29
2022-10-03T03:21:22.319Z,11.36
2022-10-03T03:24:23.604Z,11.36
2022-10-03T03:27:04.246Z,11.25
2022-10-03T03:29:44.261Z,11.23
2022-10-03T03:32:28.301Z,11.23
2022-10-03T03:35:05.444Z,11.24
2022-10-03T03:37:45.305Z,11.23
2022-10-03T03:40:32.829Z,11.24
2022-10-03T03:43:22.072Z,11.29
2022-10-03T03:46:04.447Z,11.26
2022-10-03T03:48:50.567Z,11.20
2022-10-03T03:51:33.329Z,11.19
2022-10-03T03:54:34.523Z,11.25
2022-10-03T03:57:24.229Z,11.24
2022-10-03T04:00:07.356Z,11.21
2022-10-03T04:02:58.986Z,11.15
2022-10-03T04:05:40.863Z,11.22
2022-10-03T04:08:30.504Z,11.19
2022-10-03T04:11:12.997Z,11.19
2022-10-03T04:13:59.831Z,11.28
2022-10-03T04:17:03.281Z,11.23
2022-10-03T04:19:50.008Z,11.19
2022-10-03T04:22:38.776Z,11.24
2022-10-03T04:25:26.422Z,11.26
2022-10-03T04:28:19.785Z,11.23
2022-10-03T04:31:06.526Z,11.22
2022-10-03T04:33:54.956Z,11.17
2022-10-03T04:36:52.797Z,11.18
2022-10-03T04:39:31.480Z,11.08
2022-10-03T04:42:09.449Z,11.18
2022-10-03T04:44:50.536Z,11.13
2022-10-03T04:47:27.569Z,11.22
2022-10-03T04:50:04.104Z,11.22
2022-10-03T04:52:43.159Z,11.16
2022-10-03T04:55:30.036Z,11.19
2022-10-03T04:58:08.103Z,11.10
2022-10-03T05:00:48.451Z,11.18
2022-10-03T05:03:22.719Z,11.20
2022-10-03T05:05:56.334Z,11.16
2022-10-03T05:08:36.316Z,11.23
2022-10-03T05:11:13.700Z,11.21
2022-10-03T05:14:02.267Z,11.23
2022-10-03T05:16:40.399Z,11.19
2022-10-03T05:19:44.416Z,11.12
2022-10-03T05:22:31.931Z,11.13
2022-10-03T05:25:15.176Z,11.12
2022-10-03T05:27:51.941Z,11.17
2022-10-03T05:30:34.154Z,11.17
2022-10-03T05:33:09.014Z,11.18
2022-10-03T05:35:52.278Z,11.18
2022-10-03T05:38:53.976Z,11.11
2022-10-03T05:41:28.825Z,11.12
2022-10-03T05:44:06.000Z,11.20
2022-10-03T05:46:43.432Z,11.22
2022-10-03T05:49:36.906Z,11.11
2022-10-03T05:52:25.372Z,11.21
2022-10-03T05:55:18.688Z,11.23
2022-10-03T05:58:16.601Z,11.19
2022-10-03T06:01:07.588Z,11.16
2022-10-03T06:04:06.314Z,11.22
2022-10-03T06:06:49.475Z,11.22
2022-10-03T06:10:04.515Z,11.14
2022-10-03T06:12:40.308Z,11.14
2022-10-03T06:15:33.763Z,11.17
2022-10-03T06:18:31.557Z,11.20
2022-10-03T06:21:26.167Z,11.11
2022-10-03T06:24:21.263Z,11.10
2022-10-03T06:27:08.335Z,11.13
2022-10-03T06:30:11.841Z,11.13
2022-10-03T06:33:17.817Z,11.18
2022-10-03T06:36:22.396Z,11.14
2022-10-03T06:39:24.232Z,11.15
2022-10-03T06:42:27.943Z,11.23
2022-10-03T06:45:40.860Z,11.22
2022-10-03T06:48:26.236Z,11.17
2022-10-03T06:51:00.122Z,11.15
2022-10-03T06:53:58.691Z,11.18
2022-10-03T06:56:58.000Z,11.19
2022-10-03T07:00:01.660Z,11.24
2022-10-03T07:03:07.772Z,11.27
2022-10-03T07:06:19.140Z,11.25
2022-10-03T07:09:20.644Z,11.31
2022-10-03T07:12:26.757Z,11.31
2022-10-03T07:15:38.124Z,11.28
2022-10-03T07:18:37.732Z,11.31
2022-10-03T07:21:35.938Z,11.36
2022-10-03T07:24:41.550Z,11.44
2022-10-03T07:27:40.290Z,11.47
2022-10-03T07:30:18.358Z,11.58
2022-10-03T07:33:28.836Z,11.67
2022-10-03T07:36:49.563Z,11.66
2022-10-03T07:39:39.293Z,11.65
2022-10-03T07:42:28.858Z,11.70
2022-10-03T07:45:30.215Z,11.73
2022-10-03T07:48:19.368Z,11.76
2022-10-03T07:50:58.066Z,11.83
2022-10-03T07:54:02.490Z,11.86
2022-10-03T07:56:51.831Z,11.88
2022-10-03T07:59:52.740Z,11.90
2022-10-03T08:02:57.373Z,11.98
2022-10-03T08:05:43.902Z,12.02
2022-10-03T08:08:34.567Z,12.02
2022-10-03T08:11:28.881Z,12.00
2022-10-03T08:14:10.101Z,12.02
2022-10-03T08:17:00.383Z,12.10
2022-10-03T08:19:49.563Z,12.15
2022-10-03T08:22:29.790Z,12.18
2022-10-03T08:25:22.073Z,12.23
2022-10-03T08:28:14.687Z,12.28
2022-10-03T08:31:08.432Z,12.30
2022-10-03T08:33:58.069Z,12.38
2022-10-03T08:36:53.578Z,12.37
2022-10-03T08:39:39.280Z,12.43
2022-10-03T08:42:41.133Z,12.46
2022-10-03T08:45:51.013Z,12.46
2022-10-03T08:48:48.700Z,12.58
2022-10-03T08:51:47.917Z,12.60
2022-10-03T08:54:42.252Z,12.71
2022-10-03T08:57:34.178Z,12.70
2022-10-03T09:00:15.788Z,12.72
2022-10-03T09:03:32.506Z,12.81
2022-10-03T09:07:05.044Z,12.82
2022-10-03T09:12:54.541Z,12.95
2022-10-03T09:15:51.289Z,12.96
2022-10-03T09:18:46.810Z,12.88
2022-10-03T09:21:40.718Z,12.88
2022-10-03T09:24:33.950Z,12.97
2022-10-03T09:27:19.737Z,13.06
2022-10-03T09:30:16.494Z,13.09
2022-10-03T09:33:15.394Z,13.15
2022-10-03T09:36:09.956Z,13.14
2022-10-03T09:39:32.626Z,13.17
2022-10-03T09:42:24.276Z,13.26
2022-10-03T09:45:21.814Z,13.29
2022-10-03T09:48:21.451Z,13.46
2022-10-03T09:51:16.640Z,13.54
2022-10-03T09:54:19.895Z,13.62
2022-10-03T09:57:22.718Z,13.62
2022-10-03T10:00:16.328Z,13.71
2022-10-03T10:03:35.290Z,13.74
2022-10-03T10:06:07.719Z,13.78
2022-10-03T10:09:21.872Z,13.70
2022-10-03T10:12:11.629Z,13.68
2022-10-03T10:14:58.123Z,13.64
2022-10-03T10:18:09.720Z,13.65
2022-10-03T10:21:27.855Z,13.75
2022-10-03T10:24:11.199Z,13.79
2022-10-03T10:27:19.810Z,14.22
2022-10-03T10:30:15.589Z,14.48
2022-10-03T10:33:39.800Z,14.73
2022-10-03T10:37:06.832Z,15.21
2022-10-03T10:40:22.533Z,15.51
2022-10-03T10:43:59.061Z,15.39
2022-10-03T10:47:11.736Z,15.15
2022-10-03T10:50:25.708Z,15.16
2022-10-03T10:53:51.133Z,15.13
2022-10-03T10:57:14.450Z,15.02
2022-10-03T11:00:33.113Z,14.96
2022-10-03T11:03:40.877Z,14.92
2022-10-03T11:06:46.532Z,14.86
2022-10-03T11:09:48.589Z,15.04
2022-10-03T11:12:51.925Z,14.97
2022-10-03T11:15:59.827Z,15.11
2022-10-03T11:18:59.499Z,15.12
2022-10-03T11:22:10.361Z,15.10
2022-10-03T11:25:28.207Z,15.08
2022-10-03T11:28:44.342Z,15.07
2022-10-03T11:31:49.780Z,15.09
2022-10-03T11:35:06.358Z,14.99
2022-10-03T11:37:44.105Z,14.81
2022-10-03T11:40:29.523Z,14.70
2022-10-03T11:43:17.709Z,14.72
2022-10-03T11:45:52.719Z,14.94
2022-10-03T11:48:38.378Z,14.92
2022-10-03T11:51:11.538Z,14.89
2022-10-03T11:53:50.185Z,14.84
2022-10-03T11:56:37.313Z,14.86
2022-10-03T11:59:31.779Z,14.96
2022-10-03T12:02:11.426Z,14.91
2022-10-03T12:04:51.471Z,15.12
2022-10-03T12:07:58.400Z,15.45
2022-10-03T12:10:43.127Z,15.39
2022-10-03T12:13:16.734Z,15.36
2022-10-03T12:15:50.670Z,15.34
2022-10-03T12:18:30.068Z,15.28
2022-10-03T12:21:09.457Z,15.75
2022-10-03T12:24:05.171Z,16.21
2022-10-03T12:26:49.388Z,16.74
2022-10-03T12:29:21.863Z,16.29
2022-10-03T12:32:05.920Z,15.97
2022-10-03T12:34:41.240Z,15.91
2022-10-03T12:37:29.555Z,15.82
2022-10-03T12:40:06.978Z,15.95
2022-10-03T12:42:42.212Z,16.29
2022-10-03T12:45:21.467Z,16.15
2022-10-03T12:48:12.168Z,16.44
2022-10-03T12:51:04.953Z,15.95
2022-10-03T12:53:41.874Z,15.74
2022-10-03T12:56:20.362Z,15.70
2022-10-03T12:59:27.576Z,15.69
2022-10-03T13:02:30.696Z,15.85
2022-10-03T13:05:34.927Z,15.98
2022-10-03T13:08:24.862Z,15.81
2022-10-03T13:11:10.040Z,15.82
2022-10-03T13:14:03.792Z,16.15
2022-10-03T13:16:50.331Z,16.45
2022-10-03T13:19:27.768Z,16.58
2022-10-03T13:22:13.395Z,16.70
2022-10-03T13:25:08.939Z,16.50
2022-10-03T13:28:03.161Z,16.36
2022-10-03T13:30:56.289Z,16.16
2022-10-03T13:33:42.634Z,16.07
2022-10-03T13:36:23.825Z,16.03
2022-10-03T13:39:19.345Z,16.00
2022-10-03T13:42:10.468Z,15.98
2022-10-03T13:44:41.476Z,15.98
2022-10-03T13:47:29.208Z,16.13
2022-10-03T13:50:18.815Z,16.16
2022-10-03T13:52:53.535Z,16.11
2022-10-03T13:55:35.264Z,16.09
2022-10-03T13:58:35.684Z,16.07
2022-10-03T14:01:21.716Z,16.15
2022-10-03T14:04:06.909Z,16.15
2022-10-03T14:06:44.590Z,16.25
2022-10-03T14:09:34.766Z,16.28
2022-10-03T14:12:14.172Z,16.25
2022-10-03T14:15:02.645Z,16.29
2022-10-03T14:17:51.583Z,16.24
2022-10-03T14:20:56.415Z,16.23
2022-10-03T14:23:39.713Z,16.09
2022-10-03T14:26:29.918Z,16.09
2022-10-03T14:29:21.791Z,16.02
2022-10-03T14:32:01.311Z,16.15
2022-10-03T14:35:06.007Z,16.15
2022-10-03T14:37:43.796Z,16.08
2022-10-03T14:40:37.446Z,15.98
2022-10-03T14:43:28.269Z,15.87
2022-10-03T14:46:02.158Z,15.76
2022-10-03T14:48:40.811Z,15.72
2022-10-03T14:51:20.871Z,15.68
2022-10-03T14:53:57.824Z,15.71
2022-10-03T14:56:30.841Z,15.75
2022-10-03T14:59:12.102Z,15.58
2022-10-03T15:01:52.942Z,15.58
2022-10-03T15:04:37.113Z,15.63
2022-10-03T15:07:14.865Z,15.57
2022-10-03T15:09:58.549Z,15.48
2022-10-03T15:12:39.792Z,15.42
2022-10-03T15:15:19.448Z,15.49
2022-10-03T15:17:53.463Z,15.43
2022-10-03T15:20:39.269Z,15.39
2022-10-03T15:23:27.857Z,15.40
2022-10-03T15:26:10.851Z,15.38
2022-10-03T15:28:59.517Z,15.31
2022-10-03T15:31:36.317Z,15.35
2022-10-03T15:34:26.363Z,15.31
2022-10-03T15:37:10.969Z,15.34
2022-10-03T15:39:45.318Z,15.23
2022-10-03T15:42:59.788Z,15.16
2022-10-03T15:45:39.419Z,15.11
2022-10-03T15:48:20.571Z,15.07
2022-10-03T15:51:02.816Z,15.14
2022-10-03T15:53:39.617Z,15.10
2022-10-03T15:56:26.552Z,15.15
2022-10-03T15:59:21.892Z,15.09
2022-10-03T16:02:01.792Z,15.05
2022-10-03T16:04:38.433Z,15.00
2022-10-03T16:07:27.044Z,15.08
2022-10-03T16:10:18.682Z,15.12
2022-10-03T16:13:01.988Z,15.03
2022-10-03T16:15:54.999Z,15.03
2022-10-03T16:19:04.198Z,14.92
2022-10-03T16:21:54.705Z,15.00
2022-10-03T16:24:47.909Z,14.98
2022-10-03T16:27:20.740Z,14.92
2022-10-03T16:29:58.816Z,14.86
2022-10-03T16:32:31.355Z,14.84
2022-10-03T16:35:04.519Z,14.81
2022-10-03T16:37:36.168Z,14.66
2022-10-03T16:40:08.674Z,14.58
2022-10-03T16:42:42.646Z,14.50
2022-10-03T16:45:23.316Z,14.45
2022-10-03T16:48:13.665Z,14.36
2022-10-03T16:50:52.012Z,14.40
2022-10-03T16:53:22.853Z,14.36
2022-10-03T16:56:00.068Z,14.35
2022-10-03T16:58:31.480Z,14.37
2022-10-03T17:01:25.818Z,14.36
2022-10-03T17:03:59.915Z,14.38
2022-10-03T17:06:33.846Z,14.29
2022-10-03T17:09:05.255Z,14.33
2022-10-03T17:11:38.708Z,14.41
2022-10-03T17:14:09.605Z,14.40
2022-10-03T17:16:47.327Z,14.33
2022-10-03T17:19:22.323Z,14.33
2022-10-03T17:21:55.045Z,14.33
2022-10-03T17:24:36.221Z,14.20
2022-10-03T17:27:13.660Z,14.16
2022-10-03T17:29:49.482Z,14.15
2022-10-03T17:32:24.432Z,14.11
2022-10-03T17:34:59.987Z,14.10
2022-10-03T17:37:56.764Z,14.11
2022-10-03T17:40:50.306Z,14.10
2022-10-03T17:43:29.922Z,14.10
2022-10-03T17:46:05.899Z,13.98
2022-10-03T17:48:40.523Z,13.89
2022-10-03T17:51:36.630Z,13.87
2022-10-03T17:54:15.124Z,13.89
2022-10-03T17:56:50.807Z,13.86
2022-10-03T17:59:25.477Z,13.86
2022-10-03T18:01:57.928Z,13.77
2022-10-03T18:04:34.708Z,13.83
2022-10-03T18:07:08.017Z,13.74
2022-10-03T18:09:42.090Z,13.80
2022-10-03T18:12:17.054Z,13.79
2022-10-03T18:15:08.642Z,13.74
2022-10-03T18:17:47.493Z,13.70
2022-10-03T18:20:35.202Z,13.79
2022-10-03T18:23:08.494Z,13.76
2022-10-03T18:26:20.947Z,13.72
2022-10-03T18:29:00.038Z,13.74
2022-10-03T18:31:34.241Z,13.68
2022-10-03T18:34:04.740Z,13.69
2022-10-03T18:36:37.632Z,13.68
2022-10-03T18:39:11.715Z,13.71
2022-10-03T18:41:46.698Z,13.65
2022-10-03T18:44:17.924Z,13.61
2022-10-03T18:46:50.941Z,13.59
2022-10-03T18:49:33.502Z,13.47
2022-10-03T18:52:10.845Z,13.49
2022-10-03T18:54:53.244Z,13.41
2022-10-03T18:57:27.283Z,13.35
2022-10-03T19:00:02.885Z,13.31
2022-10-03T19:02:37.623Z,13.38
2022-10-03T19:05:14.532Z,13.39
2022-10-03T19:07:51.159Z,13.39
2022-10-03T19:10:46.156Z,13.37
2022-10-03T19:13:25.850Z,13.38
2022-10-03T19:16:14.444Z,13.37
2022-10-03T19:18:47.962Z,13.41
2022-10-03T19:21:20.156Z,13.45
2022-10-03T19:23:53.105Z,13.45
2022-10-03T19:26:26.027Z,13.41
2022-10-03T19:29:00.269Z,13.37
2022-10-03T19:31:32.443Z,13.34
2022-10-03T19:34:04.696Z,13.38
2022-10-03T19:36:38.752Z,13.36
2022-10-03T19:39:12.660Z,13.41
2022-10-03T19:41:52.452Z,13.44
2022-10-03T19:44:25.793Z,13.33
2022-10-03T19:47:03.097Z,13.31
2022-10-03T19:49:45.618Z,13.32
2022-10-03T19:52:26.399Z,13.22
2022-10-03T19:55:01.380Z,13.30
2022-10-03T19:57:40.267Z,13.29
2022-10-03T20:00:32.389Z,13.18
2022-10-03T20:03:16.473Z,13.24
2022-10-03T20:05:54.426Z,13.18
2022-10-03T20:08:31.453Z,13.22
2022-10-03T20:11:11.016Z,13.24
2022-10-03T20:13:44.083Z,13.15
2022-10-03T20:16:17.051Z,13.13
2022-10-03T20:18:49.089Z,13.15
2022-10-03T20:21:21.574Z,13.23
2022-10-03T20:23:50.543Z,13.22
2022-10-03T20:26:26.254Z,13.19
2022-10-03T20:29:13.820Z,13.31
2022-10-03T20:31:44.896Z,13.31
2022-10-03T20:34:16.765Z,13.31
2022-10-03T20:36:50.558Z,13.26
2022-10-03T20:39:22.593Z,13.19
2022-10-03T20:41:59.742Z,13.23
2022-10-03T20:44:59.047Z,13.30
2022-10-03T20:47:51.963Z,13.32
2022-10-03T20:50:26.228Z,13.40
2022-10-03T20:52:55.527Z,13.27
2022-10-03T20:55:27.573Z,13.17
2022-10-03T20:58:05.460Z,13.22
2022-10-03T21:00:40.417Z,13.22
2022-10-03T21:03:20.057Z,13.24
2022-10-03T21:05:52.148Z,13.10
2022-10-03T21:08:24.798Z,13.12
2022-10-03T21:10:57.049Z,13.14
2022-10-03T21:13:32.966Z,13.18
2022-10-03T21:16:04.227Z,13.17
2022-10-03T21:18:38.277Z,13.10
2022-10-03T21:21:13.217Z,13.16
2022-10-03T21:23:49.471Z,13.08
2022-10-03T21:26:22.723Z,13.05
2022-10-03T21:28:51.278Z,13.07
2022-10-03T21:31:38.457Z,13.08
2022-10-03T21:34:20.473Z,13.10
2022-10-03T21:37:02.815Z,13.01
2022-10-03T21:39:40.112Z,13.09
2022-10-03T21:42:18.621Z,13.16
2022-10-03T21:45:19.532Z,13.05
2022-10-03T21:47:52.044Z,13.05
2022-10-03T21:50:25.989Z,13.03
2022-10-03T21:53:05.001Z,13.05
2022-10-03T21:56:07.877Z,13.02
2022-10-03T21:58:54.288Z,13.00
2022-10-03T22:01:32.920Z,12.95
2022-10-03T22:04:10.597Z,12.96
2022-10-03T22:06:49.617Z,12.98
2022-10-03T22:09:18.074Z,13.03
2022-10-03T22:11:52.888Z,12.99
2022-10-03T22:14:37.228Z,13.07
2022-10-03T22:17:16.212Z,13.08
2022-10-03T22:19:48.382Z,13.01
2022-10-03T22:22:37.219Z,13.03
2022-10-03T22:25:16.925Z,13.05
2022-10-03T22:27:53.176Z,13.07
2022-10-03T22:30:23.169Z,13.03
2022-10-03T22:33:04.527Z,12.96
2022-10-03T22:35:49.500Z,13.02
2022-10-03T22:38:24.178Z,12.91
2022-10-03T22:40:55.353Z,12.99
2022-10-03T22:43:25.057Z,12.97
2022-10-03T22:45:56.867Z,13.05
2022-10-03T22:48:30.082Z,12.99
2022-10-03T22:51:00.288Z,12.97
2022-10-03T22:53:36.494Z,12.97
2022-10-03T22:56:36.692Z,13.08
2022-10-03T22:59:08.632Z,13.08
2022-10-03T23:01:38.973Z,13.02
2022-10-03T23:04:13.582Z,13.02
2022-10-03T23:06:59.985Z,13.06
2022-10-03T23:09:36.802Z,13.04
2022-10-03T23:12:06.209Z,13.04
2022-10-03T23:14:38.565Z,12.99
2022-10-03T23:17:24.525Z,12.99
2022-10-03T23:20:02.779Z,12.99
2022-10-03T23:22:36.259Z,12.98
2022-10-03T23:25:09.743Z,12.94
2022-10-03T23:28:10.084Z,12.88
2022-10-03T23:30:50.406Z,12.96
2022-10-03T23:33:40.901Z,12.89
2022-10-03T23:36:17.776Z,12.95
2022-10-03T23:38:59.990Z,12.96
2022-10-03T23:41:56.422Z,12.92
2022-10-03T23:44:49.569Z,12.99
2022-10-03T23:47:21.352Z,12.89
2022-10-03T23:49:52.411Z,12.90
2022-10-03T23:52:25.685Z,12.86
2022-10-03T23:54:58.506Z,12.87
2022-10-03T23:57:43.548Z,12.83
